sensor_id;sensor_type;location;lat;lon;timestamp;pressure;altitude;pressure_sealevel;temperature;humidity
64711;BME280;51139;45.626;6.850;2023-06-01T00:01:47;82251.56;;;11.07;45.70
64711;BME280;51139;45.626;6.850;2023-06-01T00:04:12;82248.75;;;11.33;45.25
64711;BME280;51139;45.626;6.850;2023-06-01T00:06:39;82246.69;;;11.31;45.24
64711;BME280;51139;45.626;6.850;2023-06-01T00:09:04;82253.63;;;11.27;45.04
64711;BME280;51139;45.626;6.850;2023-06-01T00:11:30;82250.75;;;11.42;44.77
64711;BME280;51139;45.626;6.850;2023-06-01T00:13:55;82256.00;;;11.05;45.58
64711;BME280;51139;45.626;6.850;2023-06-01T00:16:21;82256.53;;;11.86;44.96
64711;BME280;51139;45.626;6.850;2023-06-01T00:18:48;82255.13;;;11.47;45.83
64711;BME280;51139;45.626;6.850;2023-06-01T00:21:13;82251.38;;;10.60;46.58
64711;BME280;51139;45.626;6.850;2023-06-01T00:23:39;82250.56;;;11.58;44.22
64711;BME280;51139;45.626;6.850;2023-06-01T00:26:08;82246.84;;;11.71;44.79
64711;BME280;51139;45.626;6.850;2023-06-01T00:28:34;82246.97;;;11.35;45.25
64711;BME280;51139;45.626;6.850;2023-06-01T00:30:59;82253.31;;;11.87;44.78
64711;BME280;51139;45.626;6.850;2023-06-01T00:33:25;82248.53;;;11.76;44.10
64711;BME280;51139;45.626;6.850;2023-06-01T00:35:51;82247.34;;;11.59;44.33
64711;BME280;51139;45.626;6.850;2023-06-01T00:38:16;82247.03;;;11.82;44.28
64711;BME280;51139;45.626;6.850;2023-06-01T00:40:41;82246.63;;;11.49;43.94
64711;BME280;51139;45.626;6.850;2023-06-01T00:43:09;82232.41;;;11.54;44.51
64711;BME280;51139;45.626;6.850;2023-06-01T00:45:34;82233.56;;;11.33;44.80
64711;BME280;51139;45.626;6.850;2023-06-01T00:48:00;82237.56;;;11.52;44.29
64711;BME280;51139;45.626;6.850;2023-06-01T00:50:26;82238.28;;;11.62;44.09
64711;BME280;51139;45.626;6.850;2023-06-01T00:52:52;82236.72;;;11.49;44.38
64711;BME280;51139;45.626;6.850;2023-06-01T00:55:20;82237.84;;;11.56;44.15
64711;BME280;51139;45.626;6.850;2023-06-01T00:57:46;82235.16;;;11.83;43.89
64711;BME280;51139;45.626;6.850;2023-06-01T01:00:13;82231.06;;;11.73;44.31
64711;BME280;51139;45.626;6.850;2023-06-01T01:02:40;82233.88;;;11.37;44.31
64711;BME280;51139;45.626;6.850;2023-06-01T01:05:07;82225.19;;;11.37;44.81
64711;BME280;51139;45.626;6.850;2023-06-01T01:07:59;82228.50;;;11.28;44.73
64711;BME280;51139;45.626;6.850;2023-06-01T01:10:52;82226.13;;;11.59;44.08
64711;BME280;51139;45.626;6.850;2023-06-01T01:16:45;82231.00;;;11.26;44.56
64711;BME280;51139;45.626;6.850;2023-06-01T01:30:40;82230.97;;;10.71;46.78
64711;BME280;51139;45.626;6.850;2023-06-01T01:33:07;82239.56;;;11.06;46.15
64711;BME280;51139;45.626;6.850;2023-06-01T01:35:33;82230.50;;;11.09;46.23
64711;BME280;51139;45.626;6.850;2023-06-01T01:37:59;82234.38;;;11.26;45.77
64711;BME280;51139;45.626;6.850;2023-06-01T01:40:24;82233.13;;;10.82;46.93
64711;BME280;51139;45.626;6.850;2023-06-01T01:42:50;82224.84;;;10.95;46.95
64711;BME280;51139;45.626;6.850;2023-06-01T01:45:17;82238.66;;;11.21;46.44
64711;BME280;51139;45.626;6.850;2023-06-01T01:50:18;82235.94;;;11.66;45.62
64711;BME280;51139;45.626;6.850;2023-06-01T01:52:47;82237.16;;;11.28;46.08
64711;BME280;51139;45.626;6.850;2023-06-01T01:55:14;82227.50;;;11.23;46.37
64711;BME280;51139;45.626;6.850;2023-06-01T01:57:43;82223.66;;;11.06;46.75
64711;BME280;51139;45.626;6.850;2023-06-01T02:00:09;82222.63;;;10.57;47.99
64711;BME280;51139;45.626;6.850;2023-06-01T02:02:37;82220.00;;;11.57;46.03
64711;BME280;51139;45.626;6.850;2023-06-01T02:05:02;82220.97;;;10.79;47.40
64711;BME280;51139;45.626;6.850;2023-06-01T02:07:28;82219.59;;;11.33;46.28
64711;BME280;51139;45.626;6.850;2023-06-01T02:09:53;82222.09;;;11.58;45.77
64711;BME280;51139;45.626;6.850;2023-06-01T02:12:18;82211.50;;;11.31;45.81
64711;BME280;51139;45.626;6.850;2023-06-01T02:14:44;82218.97;;;10.97;46.34
64711;BME280;51139;45.626;6.850;2023-06-01T02:17:09;82210.88;;;10.68;46.16
64711;BME280;51139;45.626;6.850;2023-06-01T02:19:34;82203.88;;;10.90;45.41
64711;BME280;51139;45.626;6.850;2023-06-01T02:22:00;82210.22;;;11.22;44.81
64711;BME280;51139;45.626;6.850;2023-06-01T02:24:26;82214.28;;;11.33;45.37
64711;BME280;51139;45.626;6.850;2023-06-01T02:26:51;82211.13;;;12.29;43.58
64711;BME280;51139;45.626;6.850;2023-06-01T02:29:19;82206.38;;;10.88;45.82
64711;BME280;51139;45.626;6.850;2023-06-01T02:31:47;82195.56;;;11.03;46.65
64711;BME280;51139;45.626;6.850;2023-06-01T02:34:12;82199.25;;;11.35;45.72
64711;BME280;51139;45.626;6.850;2023-06-01T02:36:38;82197.09;;;10.97;46.34
64711;BME280;51139;45.626;6.850;2023-06-01T02:39:03;82190.13;;;11.01;45.99
64711;BME280;51139;45.626;6.850;2023-06-01T02:41:29;82193.88;;;10.98;45.94
64711;BME280;51139;45.626;6.850;2023-06-01T02:43:54;82196.94;;;11.49;44.93
64711;BME280;51139;45.626;6.850;2023-06-01T02:46:20;82194.59;;;11.26;45.15
64711;BME280;51139;45.626;6.850;2023-06-01T02:48:46;82195.19;;;11.07;45.83
64711;BME280;51139;45.626;6.850;2023-06-01T02:51:11;82192.59;;;10.89;46.08
64711;BME280;51139;45.626;6.850;2023-06-01T02:53:41;82200.19;;;11.30;45.45
64711;BME280;51139;45.626;6.850;2023-06-01T02:56:06;82184.47;;;11.79;43.83
64711;BME280;51139;45.626;6.850;2023-06-01T02:58:32;82190.53;;;11.62;44.34
64711;BME280;51139;45.626;6.850;2023-06-01T03:00:57;82194.19;;;11.02;45.29
64711;BME280;51139;45.626;6.850;2023-06-01T03:03:26;82192.53;;;11.72;44.34
64711;BME280;51139;45.626;6.850;2023-06-01T03:05:52;82190.38;;;11.50;44.85
64711;BME280;51139;45.626;6.850;2023-06-01T03:08:18;82189.00;;;12.06;43.59
64711;BME280;51139;45.626;6.850;2023-06-01T03:10:44;82192.19;;;11.95;43.87
64711;BME280;51139;45.626;6.850;2023-06-01T03:13:09;82190.91;;;11.49;44.43
64711;BME280;51139;45.626;6.850;2023-06-01T03:15:35;82189.28;;;11.63;44.32
64711;BME280;51139;45.626;6.850;2023-06-01T03:18:02;82185.00;;;11.78;43.84
64711;BME280;51139;45.626;6.850;2023-06-01T03:20:28;82197.09;;;11.24;44.96
64711;BME280;51139;45.626;6.850;2023-06-01T03:22:53;82195.38;;;10.91;45.94
64711;BME280;51139;45.626;6.850;2023-06-01T03:25:18;82182.09;;;11.09;46.24
64711;BME280;51139;45.626;6.850;2023-06-01T03:27:44;82189.19;;;11.06;46.39
64711;BME280;51139;45.626;6.850;2023-06-01T03:30:10;82188.84;;;11.20;45.33
64711;BME280;51139;45.626;6.850;2023-06-01T03:32:39;82188.03;;;11.00;45.78
64711;BME280;51139;45.626;6.850;2023-06-01T03:35:06;82187.59;;;11.21;45.37
64711;BME280;51139;45.626;6.850;2023-06-01T03:37:51;82194.53;;;11.44;44.46
64711;BME280;51139;45.626;6.850;2023-06-01T03:40:16;82188.44;;;11.23;45.52
64711;BME280;51139;45.626;6.850;2023-06-01T03:42:46;82193.13;;;10.60;46.25
64711;BME280;51139;45.626;6.850;2023-06-01T03:45:12;82200.84;;;11.21;46.66
64711;BME280;51139;45.626;6.850;2023-06-01T03:47:38;82189.00;;;11.22;45.41
64711;BME280;51139;45.626;6.850;2023-06-01T03:50:04;82198.41;;;11.05;45.04
64711;BME280;51139;45.626;6.850;2023-06-01T03:52:31;82207.47;;;11.67;44.07
64711;BME280;51139;45.626;6.850;2023-06-01T03:54:58;82199.72;;;10.69;45.91
64711;BME280;51139;45.626;6.850;2023-06-01T03:57:24;82208.25;;;11.22;45.88
64711;BME280;51139;45.626;6.850;2023-06-01T03:59:50;82199.59;;;10.94;46.55
64711;BME280;51139;45.626;6.850;2023-06-01T04:02:16;82202.28;;;11.04;46.51
64711;BME280;51139;45.626;6.850;2023-06-01T04:04:42;82203.16;;;11.34;45.92
64711;BME280;51139;45.626;6.850;2023-06-01T04:07:11;82200.47;;;11.62;45.63
64711;BME280;51139;45.626;6.850;2023-06-01T04:09:40;82200.88;;;11.03;46.59
64711;BME280;51139;45.626;6.850;2023-06-01T04:12:06;82201.66;;;11.88;44.36
64711;BME280;51139;45.626;6.850;2023-06-01T04:14:31;82200.66;;;11.36;45.58
64711;BME280;51139;45.626;6.850;2023-06-01T04:16:56;82199.91;;;11.26;44.94
64711;BME280;51139;45.626;6.850;2023-06-01T04:19:22;82207.25;;;11.92;43.79
64711;BME280;51139;45.626;6.850;2023-06-01T04:21:47;82203.81;;;11.25;46.21
64711;BME280;51139;45.626;6.850;2023-06-01T04:24:12;82209.47;;;11.86;43.73
64711;BME280;51139;45.626;6.850;2023-06-01T04:26:38;82204.34;;;11.98;44.85
64711;BME280;51139;45.626;6.850;2023-06-01T04:29:03;82208.81;;;11.58;44.93
64711;BME280;51139;45.626;6.850;2023-06-01T04:31:29;82215.44;;;11.77;44.85
64711;BME280;51139;45.626;6.850;2023-06-01T04:33:54;82209.69;;;11.61;45.00
64711;BME280;51139;45.626;6.850;2023-06-01T04:36:22;82218.59;;;11.56;46.21
64711;BME280;51139;45.626;6.850;2023-06-01T04:38:51;82210.59;;;11.18;46.96
64711;BME280;51139;45.626;6.850;2023-06-01T04:41:18;82202.72;;;11.38;47.13
64711;BME280;51139;45.626;6.850;2023-06-01T04:43:47;82199.28;;;11.92;45.33
64711;BME280;51139;45.626;6.850;2023-06-01T04:46:19;82200.97;;;11.88;44.98
64711;BME280;51139;45.626;6.850;2023-06-01T04:48:45;82203.25;;;11.27;46.25
64711;BME280;51139;45.626;6.850;2023-06-01T04:51:12;82214.03;;;11.76;45.36
64711;BME280;51139;45.626;6.850;2023-06-01T04:53:42;82204.63;;;11.28;47.33
64711;BME280;51139;45.626;6.850;2023-06-01T04:56:08;82208.47;;;11.44;46.49
64711;BME280;51139;45.626;6.850;2023-06-01T04:58:33;82202.22;;;11.87;46.13
64711;BME280;51139;45.626;6.850;2023-06-01T05:00:59;82199.06;;;10.78;47.64
64711;BME280;51139;45.626;6.850;2023-06-01T05:03:25;82202.72;;;11.38;46.62
64711;BME280;51139;45.626;6.850;2023-06-01T05:05:50;82195.75;;;11.05;48.26
64711;BME280;51139;45.626;6.850;2023-06-01T05:08:16;82199.06;;;10.78;48.93
64711;BME280;51139;45.626;6.850;2023-06-01T05:10:41;82194.53;;;11.16;48.21
64711;BME280;51139;45.626;6.850;2023-06-01T05:13:07;82198.75;;;11.19;48.61
64711;BME280;51139;45.626;6.850;2023-06-01T05:15:32;82197.16;;;11.71;45.91
64711;BME280;51139;45.626;6.850;2023-06-01T05:17:57;82195.28;;;11.27;48.41
64711;BME280;51139;45.626;6.850;2023-06-01T05:20:23;82196.38;;;11.23;48.23
64711;BME280;51139;45.626;6.850;2023-06-01T05:22:48;82201.00;;;11.50;48.06
64711;BME280;51139;45.626;6.850;2023-06-01T05:25:14;82200.75;;;11.66;47.23
64711;BME280;51139;45.626;6.850;2023-06-01T05:27:39;82199.97;;;11.83;45.57
64711;BME280;51139;45.626;6.850;2023-06-01T05:30:05;82201.78;;;11.90;44.07
64711;BME280;51139;45.626;6.850;2023-06-01T05:32:31;82195.22;;;11.44;46.60
64711;BME280;51139;45.626;6.850;2023-06-01T05:34:57;82200.22;;;11.40;46.54
64711;BME280;51139;45.626;6.850;2023-06-01T05:37:22;82197.97;;;12.11;45.95
64711;BME280;51139;45.626;6.850;2023-06-01T05:39:48;82194.66;;;11.83;46.27
64711;BME280;51139;45.626;6.850;2023-06-01T05:42:13;82184.69;;;12.11;43.52
64711;BME280;51139;45.626;6.850;2023-06-01T05:44:38;82191.94;;;12.10;45.62
64711;BME280;51139;45.626;6.850;2023-06-01T05:47:04;82195.59;;;12.15;42.63
64711;BME280;51139;45.626;6.850;2023-06-01T05:49:30;82197.19;;;12.58;42.91
64711;BME280;51139;45.626;6.850;2023-06-01T05:51:56;82199.56;;;12.63;43.30
64711;BME280;51139;45.626;6.850;2023-06-01T05:54:22;82198.28;;;12.74;43.72
64711;BME280;51139;45.626;6.850;2023-06-01T05:56:47;82194.91;;;12.34;44.82
64711;BME280;51139;45.626;6.850;2023-06-01T05:59:13;82196.91;;;12.73;43.21
64711;BME280;51139;45.626;6.850;2023-06-01T06:01:38;82198.88;;;12.82;43.78
64711;BME280;51139;45.626;6.850;2023-06-01T06:04:05;82195.94;;;12.49;43.75
64711;BME280;51139;45.626;6.850;2023-06-01T06:06:31;82196.91;;;12.93;44.30
64711;BME280;51139;45.626;6.850;2023-06-01T06:08:56;82194.66;;;12.99;42.39
64711;BME280;51139;45.626;6.850;2023-06-01T06:11:21;82201.19;;;13.18;44.79
64711;BME280;51139;45.626;6.850;2023-06-01T06:13:50;82196.34;;;12.84;46.55
64711;BME280;51139;45.626;6.850;2023-06-01T06:16:15;82196.50;;;12.57;45.29
64711;BME280;51139;45.626;6.850;2023-06-01T06:18:42;82196.50;;;12.57;43.70
64711;BME280;51139;45.626;6.850;2023-06-01T06:21:07;82196.75;;;12.51;45.87
64711;BME280;51139;45.626;6.850;2023-06-01T06:23:33;82200.69;;;12.60;44.57
64711;BME280;51139;45.626;6.850;2023-06-01T06:25:58;82208.94;;;12.94;45.79
64711;BME280;51139;45.626;6.850;2023-06-01T06:28:24;82185.16;;;13.57;43.34
64711;BME280;51139;45.626;6.850;2023-06-01T06:30:49;82193.72;;;13.97;43.11
64711;BME280;51139;45.626;6.850;2023-06-01T06:33:15;82198.94;;;13.24;42.90
64711;BME280;51139;45.626;6.850;2023-06-01T06:35:40;82202.34;;;13.05;44.33
64711;BME280;51139;45.626;6.850;2023-06-01T06:38:06;82203.03;;;13.05;44.66
64711;BME280;51139;45.626;6.850;2023-06-01T06:40:32;82201.97;;;13.60;43.75
64711;BME280;51139;45.626;6.850;2023-06-01T06:42:57;82205.81;;;13.27;43.12
64711;BME280;51139;45.626;6.850;2023-06-01T06:45:22;82201.31;;;14.44;42.45
64711;BME280;51139;45.626;6.850;2023-06-01T06:47:48;82198.78;;;14.24;40.58
64711;BME280;51139;45.626;6.850;2023-06-01T06:50:14;82203.53;;;13.94;41.02
64711;BME280;51139;45.626;6.850;2023-06-01T06:52:39;82197.84;;;14.41;40.70
64711;BME280;51139;45.626;6.850;2023-06-01T06:55:05;82199.03;;;14.28;40.84
64711;BME280;51139;45.626;6.850;2023-06-01T06:57:31;82198.78;;;14.24;39.10
64711;BME280;51139;45.626;6.850;2023-06-01T06:59:59;82198.19;;;15.01;38.16
64711;BME280;51139;45.626;6.850;2023-06-01T07:02:25;82188.81;;;15.45;37.36
64711;BME280;51139;45.626;6.850;2023-06-01T07:04:51;82197.69;;;15.72;39.07
64711;BME280;51139;45.626;6.850;2023-06-01T07:07:17;82199.47;;;13.93;40.97
64711;BME280;51139;45.626;6.850;2023-06-01T07:09:42;82201.31;;;15.76;40.31
64711;BME280;51139;45.626;6.850;2023-06-01T07:12:08;82202.75;;;16.37;36.78
64711;BME280;51139;45.626;6.850;2023-06-01T07:14:33;82189.75;;;16.55;39.60
64711;BME280;51139;45.626;6.850;2023-06-01T07:17:00;82198.53;;;15.86;40.24
64711;BME280;51139;45.626;6.850;2023-06-01T07:19:25;82192.75;;;16.61;38.66
64711;BME280;51139;45.626;6.850;2023-06-01T07:21:57;82187.03;;;16.67;40.53
64711;BME280;51139;45.626;6.850;2023-06-01T07:24:23;82193.38;;;15.67;45.47
64711;BME280;51139;45.626;6.850;2023-06-01T07:26:48;82196.25;;;16.04;41.05
64711;BME280;51139;45.626;6.850;2023-06-01T07:29:16;82200.41;;;16.79;39.78
64711;BME280;51139;45.626;6.850;2023-06-01T07:31:41;82198.03;;;17.09;40.67
64711;BME280;51139;45.626;6.850;2023-06-01T07:34:07;82197.34;;;16.97;38.02
64711;BME280;51139;45.626;6.850;2023-06-01T07:36:32;82194.56;;;17.06;40.29
64711;BME280;51139;45.626;6.850;2023-06-01T07:38:58;82199.31;;;17.08;40.51
64711;BME280;51139;45.626;6.850;2023-06-01T07:41:24;82193.81;;;17.18;39.06
64711;BME280;51139;45.626;6.850;2023-06-01T07:43:49;82198.84;;;17.49;39.78
64711;BME280;51139;45.626;6.850;2023-06-01T07:46:15;82201.72;;;17.28;38.83
64711;BME280;51139;45.626;6.850;2023-06-01T07:48:40;82200.44;;;17.29;41.08
64711;BME280;51139;45.626;6.850;2023-06-01T07:51:05;82200.22;;;17.25;39.40
64711;BME280;51139;45.626;6.850;2023-06-01T07:53:32;82194.03;;;16.13;38.83
64711;BME280;51139;45.626;6.850;2023-06-01T07:55:57;82192.72;;;16.97;37.26
64711;BME280;51139;45.626;6.850;2023-06-01T07:58:23;82192.03;;;17.34;38.52
64711;BME280;51139;45.626;6.850;2023-06-01T08:00:48;82199.91;;;17.06;40.00
64711;BME280;51139;45.626;6.850;2023-06-01T08:03:14;82193.78;;;17.30;38.00
64711;BME280;51139;45.626;6.850;2023-06-01T08:05:40;82199.81;;;15.06;43.08
64711;BME280;51139;45.626;6.850;2023-06-01T08:08:08;82195.91;;;15.53;38.96
64711;BME280;51139;45.626;6.850;2023-06-01T08:10:34;82203.56;;;16.04;40.62
64711;BME280;51139;45.626;6.850;2023-06-01T08:12:59;82188.78;;;15.00;41.52
64711;BME280;51139;45.626;6.850;2023-06-01T08:15:25;82197.56;;;15.70;39.27
64711;BME280;51139;45.626;6.850;2023-06-01T08:17:54;82199.00;;;15.83;39.25
64711;BME280;51139;45.626;6.850;2023-06-01T08:20:19;82197.91;;;14.00;41.33
64711;BME280;51139;45.626;6.850;2023-06-01T08:22:49;82196.72;;;14.88;40.25
64711;BME280;51139;45.626;6.850;2023-06-01T08:25:15;82197.47;;;15.80;38.86
64711;BME280;51139;45.626;6.850;2023-06-01T08:27:41;82192.25;;;14.37;40.30
64711;BME280;51139;45.626;6.850;2023-06-01T08:30:08;82196.38;;;15.15;42.35
64711;BME280;51139;45.626;6.850;2023-06-01T08:32:33;82191.66;;;15.26;39.99
64711;BME280;51139;45.626;6.850;2023-06-01T08:34:59;82187.41;;;15.44;41.65
64711;BME280;51139;45.626;6.850;2023-06-01T08:37:24;82193.41;;;15.79;42.00
64711;BME280;51139;45.626;6.850;2023-06-01T08:39:50;82188.94;;;16.05;37.58
64711;BME280;51139;45.626;6.850;2023-06-01T08:42:39;82190.63;;;15.76;39.66
64711;BME280;51139;45.626;6.850;2023-06-01T08:45:05;82180.69;;;16.01;38.74
64711;BME280;51139;45.626;6.850;2023-06-01T08:47:32;82190.34;;;16.42;37.95
64711;BME280;51139;45.626;6.850;2023-06-01T08:50:01;82183.38;;;16.25;39.97
64711;BME280;51139;45.626;6.850;2023-06-01T08:52:28;82182.63;;;16.60;38.69
64711;BME280;51139;45.626;6.850;2023-06-01T08:54:58;82185.97;;;16.84;36.95
64711;BME280;51139;45.626;6.850;2023-06-01T08:57:23;82184.31;;;15.60;38.04
64711;BME280;51139;45.626;6.850;2023-06-01T08:59:49;82186.38;;;15.95;44.64
64711;BME280;51139;45.626;6.850;2023-06-01T09:02:15;82187.81;;;15.63;40.37
64711;BME280;51139;45.626;6.850;2023-06-01T09:04:41;82185.78;;;16.32;36.00
64711;BME280;51139;45.626;6.850;2023-06-01T09:07:10;82182.94;;;16.90;40.21
64711;BME280;51139;45.626;6.850;2023-06-01T09:09:35;82182.59;;;15.65;40.93
64711;BME280;51139;45.626;6.850;2023-06-01T09:14:45;82172.94;;;16.90;39.88
64711;BME280;51139;45.626;6.850;2023-06-01T09:17:15;82173.00;;;16.19;37.15
64711;BME280;51139;45.626;6.850;2023-06-01T09:19:44;82178.78;;;16.75;38.70
64711;BME280;51139;45.626;6.850;2023-06-01T09:22:10;82180.53;;;15.87;37.75
64711;BME280;51139;45.626;6.850;2023-06-01T09:24:36;82177.44;;;16.38;36.03
64711;BME280;51139;45.626;6.850;2023-06-01T09:27:01;82169.56;;;16.90;36.48
64711;BME280;51139;45.626;6.850;2023-06-01T09:29:28;82168.91;;;17.15;35.70
64711;BME280;51139;45.626;6.850;2023-06-01T09:31:54;82171.09;;;18.22;35.58
64711;BME280;51139;45.626;6.850;2023-06-01T09:34:20;82174.47;;;17.57;34.10
64711;BME280;51139;45.626;6.850;2023-06-01T09:36:48;82173.00;;;17.16;40.30
64711;BME280;51139;45.626;6.850;2023-06-01T09:39:15;82172.44;;;17.06;35.44
64711;BME280;51139;45.626;6.850;2023-06-01T09:41:48;82182.34;;;17.67;34.42
64711;BME280;51139;45.626;6.850;2023-06-01T09:44:40;82168.88;;;17.53;35.70
64711;BME280;51139;45.626;6.850;2023-06-01T09:47:08;82171.16;;;18.11;39.43
64711;BME280;51139;45.626;6.850;2023-06-01T09:49:44;82182.50;;;16.70;37.49
64711;BME280;51139;45.626;6.850;2023-06-01T09:52:14;82167.28;;;17.74;37.25
64711;BME280;51139;45.626;6.850;2023-06-01T09:54:45;82172.66;;;16.13;36.06
64711;BME280;51139;45.626;6.850;2023-06-01T09:57:12;82172.09;;;16.14;36.85
64711;BME280;51139;45.626;6.850;2023-06-01T09:59:45;82168.03;;;16.49;37.03
64711;BME280;51139;45.626;6.850;2023-06-01T10:02:21;82157.25;;;16.85;35.66
64711;BME280;51139;45.626;6.850;2023-06-01T10:04:49;82158.16;;;17.01;36.40
64711;BME280;51139;45.626;6.850;2023-06-01T10:07:15;82162.91;;;16.05;36.61
64711;BME280;51139;45.626;6.850;2023-06-01T10:09:44;82159.31;;;17.36;37.54
64711;BME280;51139;45.626;6.850;2023-06-01T10:12:10;82158.81;;;17.40;33.83
64711;BME280;51139;45.626;6.850;2023-06-01T10:14:37;82162.97;;;17.55;34.96
64711;BME280;51139;45.626;6.850;2023-06-01T10:17:04;82162.41;;;17.70;36.07
64711;BME280;51139;45.626;6.850;2023-06-01T10:19:29;82161.28;;;17.35;38.10
64711;BME280;51139;45.626;6.850;2023-06-01T10:21:58;82166.88;;;17.02;34.14
64711;BME280;51139;45.626;6.850;2023-06-01T10:24:25;82152.69;;;18.03;34.46
64711;BME280;51139;45.626;6.850;2023-06-01T10:26:56;82149.84;;;18.55;37.50
64711;BME280;51139;45.626;6.850;2023-06-01T10:29:24;82164.00;;;17.75;33.67
64711;BME280;51139;45.626;6.850;2023-06-01T10:31:50;82151.63;;;16.43;36.72
64711;BME280;51139;45.626;6.850;2023-06-01T10:34:37;82150.25;;;17.55;35.14
64711;BME280;51139;45.626;6.850;2023-06-01T10:39:32;82148.34;;;17.84;33.90
64711;BME280;51139;45.626;6.850;2023-06-01T10:52:34;82155.09;;;17.85;34.55
64711;BME280;51139;45.626;6.850;2023-06-01T11:02:56;82155.38;;;17.37;35.13
64711;BME280;51139;45.626;6.850;2023-06-01T11:13:19;82147.75;;;17.45;34.97
64711;BME280;51139;45.626;6.850;2023-06-01T11:18:57;82142.44;;;17.99;34.48
64711;BME280;51139;45.626;6.850;2023-06-01T11:23:53;82144.84;;;17.67;33.33
64711;BME280;51139;45.626;6.850;2023-06-01T11:26:21;82146.44;;;17.72;39.74
64711;BME280;51139;45.626;6.850;2023-06-01T11:28:50;82134.06;;;19.03;36.18
64711;BME280;51139;45.626;6.850;2023-06-01T11:31:17;82139.63;;;16.68;35.18
64711;BME280;51139;45.626;6.850;2023-06-01T11:33:50;82134.75;;;17.79;37.59
64711;BME280;51139;45.626;6.850;2023-06-01T11:36:23;82130.28;;;18.80;38.13
64711;BME280;51139;45.626;6.850;2023-06-01T11:38:50;82134.66;;;18.31;34.89
64711;BME280;51139;45.626;6.850;2023-06-01T11:41:16;82135.94;;;17.76;33.76
64711;BME280;51139;45.626;6.850;2023-06-01T11:43:42;82142.41;;;18.53;35.79
64711;BME280;51139;45.626;6.850;2023-06-01T11:46:08;82134.03;;;17.65;35.55
64711;BME280;51139;45.626;6.850;2023-06-01T11:48:35;82135.50;;;17.28;35.09
64711;BME280;51139;45.626;6.850;2023-06-01T11:51:02;82130.53;;;17.62;39.03
64711;BME280;51139;45.626;6.850;2023-06-01T11:53:29;82130.47;;;17.34;33.55
64711;BME280;51139;45.626;6.850;2023-06-01T11:55:56;82136.06;;;16.51;38.08
64711;BME280;51139;45.626;6.850;2023-06-01T11:58:26;82132.69;;;17.52;35.08
64711;BME280;51139;45.626;6.850;2023-06-01T12:00:52;82134.41;;;17.33;35.63
64711;BME280;51139;45.626;6.850;2023-06-01T12:03:18;82130.72;;;16.89;34.10
64711;BME280;51139;45.626;6.850;2023-06-01T12:05:44;82123.00;;;17.59;37.45
64711;BME280;51139;45.626;6.850;2023-06-01T12:08:19;82128.72;;;17.79;35.21
64711;BME280;51139;45.626;6.850;2023-06-01T12:10:46;82122.06;;;18.20;33.92
64711;BME280;51139;45.626;6.850;2023-06-01T12:13:13;82117.47;;;18.64;33.03
64711;BME280;51139;45.626;6.850;2023-06-01T12:15:40;82121.13;;;18.85;33.82
64711;BME280;51139;45.626;6.850;2023-06-01T12:18:05;82121.84;;;18.16;34.54
64711;BME280;51139;45.626;6.850;2023-06-01T12:20:33;82115.59;;;18.53;34.07
64711;BME280;51139;45.626;6.850;2023-06-01T12:23:02;82123.00;;;17.07;34.31
64711;BME280;51139;45.626;6.850;2023-06-01T12:25:30;82117.78;;;16.59;35.64
64711;BME280;51139;45.626;6.850;2023-06-01T12:28:14;82110.59;;;17.52;36.25
64711;BME280;51139;45.626;6.850;2023-06-01T12:30:39;82119.66;;;18.40;36.57
64711;BME280;51139;45.626;6.850;2023-06-01T12:33:05;82114.75;;;17.94;31.85
64711;BME280;51139;45.626;6.850;2023-06-01T12:35:31;82113.63;;;18.12;35.41
64711;BME280;51139;45.626;6.850;2023-06-01T12:38:07;82117.09;;;16.97;36.84
64711;BME280;51139;45.626;6.850;2023-06-01T12:40:34;82110.44;;;16.60;37.83
64711;BME280;51139;45.626;6.850;2023-06-01T12:43:00;82115.50;;;17.17;35.85
64711;BME280;51139;45.626;6.850;2023-06-01T12:45:34;82110.97;;;17.86;36.16
64711;BME280;51139;45.626;6.850;2023-06-01T12:48:01;82105.38;;;18.21;35.53
64711;BME280;51139;45.626;6.850;2023-06-01T12:50:27;82103.88;;;17.64;36.57
64711;BME280;51139;45.626;6.850;2023-06-01T12:52:52;82106.16;;;16.55;38.12
64711;BME280;51139;45.626;6.850;2023-06-01T12:55:18;82097.69;;;16.58;36.76
64711;BME280;51139;45.626;6.850;2023-06-01T12:57:52;82101.44;;;16.79;38.90
64711;BME280;51139;45.626;6.850;2023-06-01T13:00:18;82100.25;;;17.46;39.49
64711;BME280;51139;45.626;6.850;2023-06-01T13:02:44;82101.81;;;18.17;36.06
64711;BME280;51139;45.626;6.850;2023-06-01T13:05:14;82091.69;;;18.29;37.38
64711;BME280;51139;45.626;6.850;2023-06-01T13:07:41;82095.94;;;18.62;35.32
64711;BME280;51139;45.626;6.850;2023-06-01T13:10:07;82096.25;;;18.41;39.07
64711;BME280;51139;45.626;6.850;2023-06-01T13:12:34;82087.63;;;18.86;37.09
64711;BME280;51139;45.626;6.850;2023-06-01T13:14:59;82091.84;;;18.61;40.69
64711;BME280;51139;45.626;6.850;2023-06-01T13:17:26;82090.75;;;18.80;36.85
64711;BME280;51139;45.626;6.850;2023-06-01T13:19:51;82094.50;;;18.89;38.80
64711;BME280;51139;45.626;6.850;2023-06-01T13:22:17;82089.13;;;19.33;37.72
64711;BME280;51139;45.626;6.850;2023-06-01T13:24:43;82086.06;;;19.25;38.60
64711;BME280;51139;45.626;6.850;2023-06-01T13:27:08;82086.63;;;19.07;39.36
64711;BME280;51139;45.626;6.850;2023-06-01T13:29:34;82084.16;;;19.58;36.02
64711;BME280;51139;45.626;6.850;2023-06-01T13:31:59;82087.72;;;19.92;35.22
64711;BME280;51139;45.626;6.850;2023-06-01T13:34:25;82085.63;;;19.45;34.45
64711;BME280;51139;45.626;6.850;2023-06-01T13:36:50;82089.13;;;19.63;35.99
64711;BME280;51139;45.626;6.850;2023-06-01T13:39:16;82080.22;;;19.29;38.79
64711;BME280;51139;45.626;6.850;2023-06-01T13:41:42;82080.34;;;19.63;34.83
64711;BME280;51139;45.626;6.850;2023-06-01T13:44:07;82081.53;;;19.44;35.46
64711;BME280;51139;45.626;6.850;2023-06-01T13:46:33;82076.66;;;18.38;36.82
64711;BME280;51139;45.626;6.850;2023-06-01T13:48:58;82080.25;;;18.29;40.83
64711;BME280;51139;45.626;6.850;2023-06-01T13:51:24;82078.97;;;18.16;39.19
64711;BME280;51139;45.626;6.850;2023-06-01T13:53:49;82075.53;;;17.73;40.97